Atlanta, GA (30350)

2:00 PM EDT on March 28, 2015 (GMT -0400)
Dunwoody, Austin Glen | | Change Station
CLOSE
Current Station
Personal Weather Station
Location: Dunwoody, GA
Elevation: 1144 ft
Nearby Weather Stations
Active Advisory: Freeze Warning

Elev 1144 ft 33.96 °N, 84.34 °W | Updated 32 seconds ago

Clear
Clear
48.0 °F
Feels Like 48 °F
N
1.1
Wind Variable Wind from NNW
Gusts 6.0 mph

Today
High -- | Low -- °F
--% Chance of Precip.
Yesterday
High -- | Low -- °F
Precip. -- in
7:30 AM 7:54 PM
Waxing Gibbous, 64% visible
Pressure 30.18 in
Visibility 10.0 miles
Clouds Clear
Windchill 48 °F
Dew Point 18 °F
Humidity 30%
Rainfall 0.00 in
Snow Depth Not available.
UV 10 out of 12
Pollen 10.30 out of 12
Air Quality Not available.
Flu Activity Not available.
METAR KPDK 281753Z 30015G20KT 10SM CLR 09/M08 A3015 RMK AO2 SLP219 T00891083 10094 20006 51002

More Conditions Fewer Conditions

Pressure 30.18 in
Visibility 10.0 miles
Clouds Clear
Windchill 48 °F
Dew Point 18 °F
Humidity 30%
Rainfall 0.00 in
Snow Depth Not available.
UV 10 out of 12
Pollen 10.30 out of 12
Air Quality Not available.
Flu Activity Not available.
METAR KPDK 281753Z 30015G20KT 10SM CLR 09/M08 A3015 RMK AO2 SLP219 T00891083 10094 20006 51002

More Conditions Fewer Conditions

10-Day Weather Forecast

Almanac

Astronomy

Mar. 28, 2015 Rise Set
Actual Time
Civil Twilight
Nautical Twilight
Astronomical Twilight
Moon
Length of Visible Light
Length of Day
Tomorrow will be .
, % of the Moon is Illuminated

Today's Extremes

State Highs State Lows

Community

WunderPhotos

Upload Photos

1,809,042 photos uploaded!

WunderBlogs® & News

Nearby

Air Quality

  Air Quality AQ Index Pollutant
Not available.

Snow Depth

Station Depth Elevation

Earthquake Activity

City Distance Mag. Time & Date
Minimum magnitude displayed is 2.5.

Coastal Water Temperatures

Place Temperature

Stations

Nearby Weather Stations

Station Location Temp. Windchill Dew Point Humidity Wind Precip. Elev Updated Type
                   
Freeze Warning
Statement as of 11:24 AM EDT on March 28, 2015

... Freeze warning remains in effect from midnight tonight to
10 am EDT Sunday...

* locations... north of a line from Franklin to Fayetteville...
Lawrenceville and Homer for the freeze warning this morning.
North of a line from Hamilton to Macon and Louisville for the
freeze warning Sunday morning.

* Temperatures... lower 30s... except mid to upper 20s in the
mountains this morning. Mid 20s to lower 30s... except low to
mid 20s in the mountains Sunday morning.

* Timing... 2 am to 10 am this morning for the freeze warning.
Midnight to 8 am Sunday morning.

* Impacts... freezing temperatures could damage tender vegetation.

Precautionary/preparedness actions...

A freeze warning means freezing temperatures are forecast to
threaten outdoor plants. Those with agricultural interests in the
warned area are advised to harvest or protect tender vegetation.